createdAt,value
2023-03-02T00:01:52.676Z,29.48
2023-03-02T00:04:23.286Z,29.55
2023-03-02T00:06:51.822Z,31.23
2023-03-02T00:09:18.401Z,29.75
2023-03-02T00:11:45.719Z,29.65
2023-03-02T00:14:12.215Z,28.58
2023-03-02T00:16:40.159Z,32.88
2023-03-02T00:19:06.570Z,29.45
2023-03-02T00:21:33.031Z,31.48
2023-03-02T00:23:59.518Z,27.95
2023-03-02T00:26:25.985Z,32.97
2023-03-02T00:28:52.389Z,31.05
2023-03-02T00:31:19.615Z,29.45
2023-03-02T00:33:46.188Z,28.10
2023-03-02T00:36:17.659Z,36.03
2023-03-02T00:38:44.243Z,30.77
2023-03-02T00:41:12.572Z,33.40
2023-03-02T00:43:39.494Z,45.90
2023-03-02T00:46:10.963Z,47.42
2023-03-02T00:51:04.406Z,30.10
2023-03-02T00:53:31.009Z,33.00
2023-03-02T00:55:57.502Z,34.65
2023-03-02T00:58:23.960Z,38.97
2023-03-02T01:00:50.407Z,30.15
2023-03-02T01:03:16.889Z,35.28
2023-03-02T01:05:43.528Z,28.98
2023-03-02T01:08:09.991Z,30.95
2023-03-02T01:10:37.496Z,33.92
2023-03-02T01:13:04.599Z,29.48
2023-03-02T01:15:31.013Z,28.63
2023-03-02T01:18:22.041Z,29.08
2023-03-02T01:20:48.468Z,26.63
2023-03-02T01:23:14.880Z,29.48
2023-03-02T01:25:41.315Z,32.88
2023-03-02T01:28:07.742Z,27.20
2023-03-02T01:30:34.200Z,27.90
2023-03-02T01:33:00.651Z,28.58
2023-03-02T01:35:27.109Z,31.55
2023-03-02T01:37:53.604Z,31.40
2023-03-02T01:40:20.141Z,30.52
2023-03-02T01:42:51.329Z,33.38
2023-03-02T01:45:56.149Z,33.22
2023-03-02T01:48:29.857Z,28.77
2023-03-02T01:50:57.464Z,27.83
2023-03-02T01:53:26.305Z,32.97
2023-03-02T01:55:53.280Z,28.65
2023-03-02T01:58:20.896Z,29.05
2023-03-02T02:00:47.935Z,26.63
2023-03-02T02:03:21.057Z,34.80
2023-03-02T02:06:18.039Z,31.55
2023-03-02T02:08:46.162Z,30.02
2023-03-02T02:11:13.351Z,31.15
2023-03-02T02:13:40.134Z,32.10
2023-03-02T02:16:07.209Z,30.52
2023-03-02T02:18:40.112Z,34.03
2023-03-02T02:21:08.322Z,28.45
2023-03-02T02:23:37.502Z,29.90
2023-03-02T02:26:28.902Z,32.67
2023-03-02T02:28:58.180Z,26.17
2023-03-02T02:31:42.238Z,32.83
2023-03-02T02:34:41.136Z,30.75
2023-03-02T02:37:14.278Z,28.90
2023-03-02T02:39:45.866Z,32.17
2023-03-02T02:44:45.000Z,36.75
2023-03-02T02:47:18.318Z,31.02
2023-03-02T02:49:46.834Z,32.45
2023-03-02T02:52:17.506Z,33.38
2023-03-02T02:54:46.816Z,31.33
2023-03-02T02:57:17.694Z,32.80
2023-03-02T02:59:55.996Z,36.33
2023-03-02T03:02:25.160Z,32.28
2023-03-02T03:04:52.328Z,39.78
2023-03-02T03:07:24.720Z,33.97
2023-03-02T03:10:01.474Z,37.53
2023-03-02T03:12:31.012Z,33.83
2023-03-02T03:14:58.818Z,32.28
2023-03-02T03:17:25.297Z,34.08
2023-03-02T03:19:51.723Z,34.97
2023-03-02T03:22:18.189Z,32.92
2023-03-02T03:24:46.037Z,25.88
2023-03-02T03:27:15.570Z,32.55
2023-03-02T03:29:45.577Z,29.02
2023-03-02T03:32:12.037Z,32.30
2023-03-02T03:34:40.598Z,27.83
2023-03-02T03:37:13.019Z,28.52
2023-03-02T03:39:39.669Z,25.58
2023-03-02T03:42:06.420Z,28.45
2023-03-02T03:44:32.984Z,32.90
2023-03-02T03:46:59.651Z,34.40
2023-03-02T03:49:26.933Z,31.63
2023-03-02T03:51:53.474Z,26.80
2023-03-02T03:54:20.183Z,26.55
2023-03-02T03:56:49.835Z,31.10
2023-03-02T03:59:20.557Z,28.42
2023-03-02T04:01:56.176Z,29.00
2023-03-02T04:04:30.276Z,30.67
2023-03-02T04:06:57.234Z,30.58
2023-03-02T04:09:24.764Z,33.50
2023-03-02T04:11:54.185Z,32.15
2023-03-02T04:14:22.565Z,26.63
2023-03-02T04:16:49.330Z,34.08
2023-03-02T04:19:17.510Z,29.63
2023-03-02T04:21:47.514Z,24.70
2023-03-02T04:24:14.694Z,29.92
2023-03-02T04:26:42.433Z,32.30
2023-03-02T04:29:10.295Z,27.33
2023-03-02T04:31:36.804Z,29.55
2023-03-02T04:34:06.565Z,33.28
2023-03-02T04:36:36.540Z,30.70
2023-03-02T04:39:05.172Z,29.35
2023-03-02T04:41:32.104Z,32.70
2023-03-02T04:43:58.580Z,29.88
2023-03-02T04:46:26.757Z,28.15
2023-03-02T04:48:55.040Z,27.67
2023-03-02T04:51:34.940Z,31.95
2023-03-02T04:54:07.341Z,26.42
2023-03-02T04:56:34.578Z,30.58
2023-03-02T04:59:01.225Z,27.60
2023-03-02T05:01:27.784Z,29.90
2023-03-02T05:03:54.292Z,32.80
2023-03-02T05:06:21.824Z,28.83
2023-03-02T05:08:48.564Z,28.52
2023-03-02T05:11:21.979Z,31.48
2023-03-02T05:13:53.535Z,31.88
2023-03-02T05:18:48.089Z,36.40
2023-03-02T05:21:15.343Z,33.55
2023-03-02T05:23:42.792Z,30.60
2023-03-02T05:26:10.088Z,30.70
2023-03-02T05:28:36.948Z,33.55
2023-03-02T05:31:03.808Z,34.08
2023-03-02T05:33:30.879Z,34.83
2023-03-02T05:35:57.631Z,33.90
2023-03-02T05:38:24.138Z,35.80
2023-03-02T05:40:50.631Z,36.90
2023-03-02T05:43:20.077Z,35.55
2023-03-02T05:45:46.606Z,32.70
2023-03-02T05:48:14.227Z,35.50
2023-03-02T05:50:41.302Z,34.50
2023-03-02T05:53:07.861Z,30.88
2023-03-02T05:55:37.907Z,35.08
2023-03-02T05:58:06.666Z,34.63
2023-03-02T06:00:33.210Z,31.10
2023-03-02T06:02:59.796Z,34.30
2023-03-02T06:05:26.334Z,34.78
2023-03-02T06:07:52.820Z,32.15
2023-03-02T06:10:19.380Z,30.33
2023-03-02T06:12:45.802Z,35.33
2023-03-02T06:15:12.285Z,38.25
2023-03-02T06:17:38.849Z,35.78
2023-03-02T06:20:10.903Z,36.33
2023-03-02T06:22:43.041Z,34.08
2023-03-02T06:25:11.762Z,39.33
2023-03-02T06:27:39.425Z,32.95
2023-03-02T06:30:07.472Z,32.55
2023-03-02T06:32:35.249Z,32.13
2023-03-02T06:35:03.217Z,35.75
2023-03-02T06:37:31.054Z,33.65
2023-03-02T06:39:58.403Z,35.05
2023-03-02T06:42:26.633Z,34.30
2023-03-02T06:44:54.937Z,44.85
2023-03-02T06:47:22.241Z,36.97
2023-03-02T06:49:49.213Z,40.90
2023-03-02T06:52:16.319Z,36.67
2023-03-02T06:54:42.956Z,40.45
2023-03-02T06:57:09.493Z,42.30
2023-03-02T06:59:35.992Z,40.65
2023-03-02T07:02:02.636Z,40.33
2023-03-02T07:04:29.153Z,38.10
2023-03-02T07:06:55.906Z,43.17
2023-03-02T07:09:23.112Z,40.83
2023-03-02T07:11:49.650Z,41.72
2023-03-02T07:14:16.194Z,39.63
2023-03-02T07:16:42.789Z,39.97
2023-03-02T07:19:13.744Z,40.15
2023-03-02T07:21:40.942Z,34.30
2023-03-02T07:24:07.886Z,40.80
2023-03-02T07:26:34.450Z,42.80
2023-03-02T07:29:01.020Z,39.05
2023-03-02T07:31:28.282Z,46.85
2023-03-02T07:33:54.776Z,47.03
2023-03-02T07:36:21.326Z,49.40
2023-03-02T07:38:48.642Z,43.10
2023-03-02T07:41:17.097Z,44.55
2023-03-02T07:43:44.139Z,41.45
2023-03-02T07:46:44.980Z,42.45
2023-03-02T07:49:11.425Z,41.47
2023-03-02T07:51:37.892Z,37.08
2023-03-02T07:54:05.053Z,40.03
2023-03-02T07:56:32.010Z,43.08
2023-03-02T07:58:58.621Z,39.50
2023-03-02T08:01:25.362Z,44.63
2023-03-02T08:03:52.130Z,49.40
2023-03-02T08:06:18.839Z,45.05
2023-03-02T08:08:45.695Z,43.58
2023-03-02T08:11:15.220Z,46.08
2023-03-02T08:13:42.562Z,44.50
2023-03-02T08:16:11.476Z,50.17
2023-03-02T08:18:38.805Z,50.95
2023-03-02T08:21:12.350Z,43.95
2023-03-02T08:23:38.973Z,46.65
2023-03-02T08:26:05.770Z,43.20
2023-03-02T08:28:32.371Z,45.88
2023-03-02T08:30:59.704Z,43.50
2023-03-02T08:33:27.958Z,49.15
2023-03-02T08:35:57.395Z,50.55
2023-03-02T08:38:24.462Z,51.20
2023-03-02T08:40:52.481Z,48.60
2023-03-02T08:43:20.235Z,51.30
2023-03-02T08:45:54.445Z,48.80
2023-03-02T08:48:22.331Z,48.88
2023-03-02T08:51:00.730Z,47.50
2023-03-02T08:53:29.724Z,48.70
2023-03-02T08:55:56.292Z,58.05
2023-03-02T08:58:22.871Z,54.20
2023-03-02T09:00:49.529Z,53.72
2023-03-02T09:03:16.366Z,53.15
2023-03-02T09:05:43.517Z,49.22
2023-03-02T09:08:11.035Z,46.40
2023-03-02T09:10:38.074Z,47.72
2023-03-02T09:13:08.074Z,45.90
2023-03-02T09:15:35.059Z,48.97
2023-03-02T09:18:01.589Z,44.30
2023-03-02T09:20:28.090Z,49.45
2023-03-02T09:22:54.582Z,48.33
2023-03-02T09:25:21.118Z,53.45
2023-03-02T09:27:47.663Z,51.60
2023-03-02T09:30:15.431Z,48.03
2023-03-02T09:32:42.412Z,51.50
2023-03-02T09:35:09.035Z,44.88
2023-03-02T09:37:38.643Z,46.03
2023-03-02T09:40:15.515Z,44.47
2023-03-02T09:42:53.832Z,45.30
2023-03-02T09:45:38.481Z,47.72
2023-03-02T09:48:38.175Z,43.20
2023-03-02T09:51:20.236Z,48.33
2023-03-02T09:53:56.094Z,47.58
2023-03-02T09:56:22.758Z,45.92
2023-03-02T09:59:04.274Z,49.70
2023-03-02T10:01:41.726Z,46.55
2023-03-02T10:04:30.347Z,49.05
2023-03-02T10:07:12.762Z,44.25
2023-03-02T10:09:39.872Z,43.75
2023-03-02T10:16:03.128Z,50.42
2023-03-02T10:18:51.038Z,48.22
2023-03-02T10:21:39.025Z,45.38
2023-03-02T10:24:30.895Z,46.30
2023-03-02T10:27:16.072Z,175.25
2023-03-02T10:29:54.407Z,47.22
2023-03-02T10:32:23.583Z,48.72
2023-03-02T10:34:52.172Z,35.20
2023-03-02T10:37:22.867Z,35.47
2023-03-02T10:39:49.697Z,34.40
2023-03-02T10:42:28.752Z,40.05
2023-03-02T10:45:28.316Z,39.28
2023-03-02T10:48:10.295Z,36.58
2023-03-02T10:50:37.537Z,33.13
2023-03-02T10:53:08.439Z,35.60
2023-03-02T10:55:35.464Z,40.13
2023-03-02T10:58:05.806Z,39.53
2023-03-02T11:00:34.618Z,39.25
2023-03-02T11:03:04.060Z,39.85
2023-03-02T11:05:36.392Z,36.15
2023-03-02T11:08:09.752Z,34.78
2023-03-02T11:10:39.550Z,38.50
2023-03-02T11:13:28.043Z,32.65
2023-03-02T11:16:16.725Z,38.45
2023-03-02T11:18:49.744Z,186.15
2023-03-02T11:21:23.851Z,55.40
2023-03-02T11:23:57.014Z,36.58
2023-03-02T11:26:27.769Z,33.97
2023-03-02T11:29:03.866Z,31.45
2023-03-02T11:31:52.472Z,53.08
2023-03-02T11:34:22.025Z,43.92
2023-03-02T11:36:59.845Z,37.75
2023-03-02T11:39:37.458Z,29.60
2023-03-02T11:42:20.456Z,37.40
2023-03-02T11:44:48.472Z,34.03
2023-03-02T11:47:16.356Z,32.05
2023-03-02T11:49:48.915Z,32.22
2023-03-02T11:52:20.401Z,34.20
2023-03-02T11:54:54.055Z,34.30
2023-03-02T11:57:23.200Z,35.38
2023-03-02T11:59:52.126Z,33.20
2023-03-02T12:02:19.479Z,34.00
2023-03-02T12:04:47.750Z,34.50
2023-03-02T12:07:23.914Z,32.38
2023-03-02T12:10:28.392Z,33.92
2023-03-02T12:13:14.888Z,34.53
2023-03-02T12:15:45.425Z,35.65
2023-03-02T12:18:43.238Z,33.27
2023-03-02T12:21:09.629Z,33.80
2023-03-02T12:23:53.101Z,34.65
2023-03-02T12:26:19.537Z,36.20
2023-03-02T12:29:07.063Z,31.98
2023-03-02T12:31:50.189Z,35.58
2023-03-02T12:34:42.965Z,33.00
2023-03-02T12:37:25.571Z,32.38
2023-03-02T12:40:10.771Z,37.38
2023-03-02T12:42:47.541Z,30.50
2023-03-02T12:45:13.974Z,36.08
2023-03-02T12:47:47.085Z,38.55
2023-03-02T12:50:20.662Z,39.55
2023-03-02T12:53:00.882Z,32.58
2023-03-02T12:55:27.912Z,36.53
2023-03-02T12:58:01.159Z,37.90
2023-03-02T13:00:31.033Z,38.47
2023-03-02T13:02:59.708Z,40.38
2023-03-02T13:05:32.300Z,39.45
2023-03-02T13:08:17.556Z,38.25
2023-03-02T13:10:49.943Z,33.40
2023-03-02T13:13:18.038Z,38.08
2023-03-02T13:15:55.266Z,33.65
2023-03-02T13:18:24.120Z,38.53
2023-03-02T13:20:51.517Z,36.90
2023-03-02T13:23:19.018Z,33.25
2023-03-02T13:26:41.059Z,32.33
2023-03-02T13:31:48.488Z,38.53
2023-03-02T13:34:23.714Z,42.33
2023-03-02T13:36:51.436Z,29.42
2023-03-02T13:39:26.000Z,31.92
2023-03-02T13:41:55.937Z,34.78
2023-03-02T13:44:34.314Z,32.58
2023-03-02T13:47:01.988Z,29.33
2023-03-02T13:49:32.482Z,28.60
2023-03-02T13:52:08.302Z,27.43
2023-03-02T13:54:36.889Z,27.45
2023-03-02T13:57:05.184Z,25.85
2023-03-02T13:59:36.361Z,31.67
2023-03-02T14:02:03.353Z,27.25
2023-03-02T14:04:29.942Z,25.20
2023-03-02T14:06:56.540Z,22.75
2023-03-02T14:09:23.079Z,30.30
2023-03-02T14:11:55.054Z,29.27
2023-03-02T14:14:24.921Z,23.40
2023-03-02T14:16:51.719Z,26.77
2023-03-02T14:19:18.682Z,22.00
2023-03-02T14:21:46.236Z,22.35
2023-03-02T14:24:14.370Z,30.40
2023-03-02T14:26:47.290Z,27.95
2023-03-02T14:29:22.671Z,27.33
2023-03-02T14:31:49.286Z,28.48
2023-03-02T14:34:17.058Z,28.55
2023-03-02T14:36:46.098Z,27.52
2023-03-02T14:39:22.807Z,34.20
2023-03-02T14:41:54.171Z,27.27
2023-03-02T14:44:21.054Z,25.13
2023-03-02T14:46:47.557Z,23.20
2023-03-02T14:49:14.155Z,25.83
2023-03-02T14:51:41.845Z,27.77
2023-03-02T14:54:14.953Z,25.52
2023-03-02T14:56:43.051Z,23.27
2023-03-02T14:59:13.840Z,23.20
2023-03-02T15:01:41.796Z,28.05
2023-03-02T15:04:08.297Z,24.55
2023-03-02T15:06:38.124Z,23.70
2023-03-02T15:09:04.845Z,26.80
2023-03-02T15:11:31.768Z,30.60
2023-03-02T15:13:58.952Z,29.35
2023-03-02T15:16:25.656Z,25.15
2023-03-02T15:18:53.260Z,27.90
2023-03-02T15:21:24.324Z,28.15
2023-03-02T15:23:51.097Z,26.67
2023-03-02T15:26:17.915Z,25.33
2023-03-02T15:28:46.900Z,26.48
2023-03-02T15:31:16.185Z,32.88
2023-03-02T15:33:45.160Z,27.88
2023-03-02T15:36:12.542Z,28.92
2023-03-02T15:38:39.037Z,27.33
2023-03-02T15:41:12.824Z,24.77
2023-03-02T15:43:39.620Z,21.80
2023-03-02T15:46:09.123Z,25.90
2023-03-02T15:48:36.732Z,31.45
2023-03-02T15:51:06.464Z,28.27
2023-03-02T15:53:37.443Z,32.88
2023-03-02T15:56:09.438Z,35.33
2023-03-02T16:01:12.344Z,43.47
2023-03-02T16:03:38.864Z,47.17
2023-03-02T16:06:05.771Z,49.88
2023-03-02T16:08:32.251Z,45.75
2023-03-02T16:11:00.789Z,50.00
2023-03-02T16:13:28.007Z,38.33
2023-03-02T16:15:54.496Z,36.78
2023-03-02T16:18:20.958Z,27.02
2023-03-02T16:20:47.646Z,27.42
2023-03-02T16:23:16.033Z,25.92
2023-03-02T16:25:44.122Z,27.85
2023-03-02T16:28:11.564Z,28.10
2023-03-02T16:30:39.402Z,24.77
2023-03-02T16:33:09.185Z,27.98
2023-03-02T16:35:37.069Z,28.27
2023-03-02T16:38:04.685Z,24.23
2023-03-02T16:40:31.962Z,26.27
2023-03-02T16:42:58.677Z,24.92
2023-03-02T16:45:26.925Z,24.30
2023-03-02T16:47:53.762Z,31.88
2023-03-02T16:50:20.763Z,24.42
2023-03-02T16:52:47.179Z,26.73
2023-03-02T16:55:17.506Z,27.23
2023-03-02T16:57:44.583Z,26.73
2023-03-02T17:00:18.069Z,28.70
2023-03-02T17:02:44.910Z,32.25
2023-03-02T17:05:13.971Z,29.65
2023-03-02T17:07:41.922Z,26.65
2023-03-02T17:10:12.172Z,26.20
2023-03-02T17:12:38.821Z,23.08
2023-03-02T17:15:05.908Z,35.00
2023-03-02T17:17:32.556Z,34.72
2023-03-02T17:19:59.093Z,32.60
2023-03-02T17:22:25.708Z,37.55
2023-03-02T17:24:52.327Z,59.53
2023-03-02T17:27:24.926Z,51.88
2023-03-02T17:29:52.274Z,57.03
2023-03-02T17:32:19.023Z,47.25
2023-03-02T17:34:46.874Z,40.58
2023-03-02T17:37:14.222Z,36.67
2023-03-02T17:39:40.650Z,40.03
2023-03-02T17:42:07.316Z,42.83
2023-03-02T17:44:34.595Z,35.35
2023-03-02T17:47:05.279Z,33.70
2023-03-02T17:49:32.000Z,35.70
2023-03-02T17:51:58.433Z,45.40
2023-03-02T17:54:24.957Z,36.28
2023-03-02T17:56:51.437Z,32.42
2023-03-02T17:59:18.195Z,31.25
2023-03-02T18:01:44.694Z,34.65
2023-03-02T18:04:11.221Z,31.13
2023-03-02T18:06:37.689Z,35.47
2023-03-02T18:09:04.242Z,29.83
2023-03-02T18:11:30.761Z,38.83
2023-03-02T18:13:58.146Z,33.50
2023-03-02T18:16:27.853Z,41.42
2023-03-02T18:18:54.703Z,35.85
2023-03-02T18:21:22.004Z,33.25
2023-03-02T18:23:48.755Z,35.65
2023-03-02T18:26:15.815Z,33.50
2023-03-02T18:28:42.690Z,35.17
2023-03-02T18:31:09.951Z,34.10
2023-03-02T18:33:36.438Z,34.33
2023-03-02T18:36:05.422Z,33.20
2023-03-02T18:38:33.629Z,42.25
2023-03-02T18:41:03.145Z,41.63
2023-03-02T18:43:32.571Z,42.42
2023-03-02T18:45:59.099Z,33.15
2023-03-02T18:48:25.611Z,37.53
2023-03-02T18:50:52.250Z,34.15
2023-03-02T18:53:18.838Z,40.05
2023-03-02T18:55:45.333Z,36.95
2023-03-02T18:58:18.724Z,36.97
2023-03-02T19:00:46.348Z,36.45
2023-03-02T19:03:15.224Z,38.85
2023-03-02T19:05:41.951Z,45.70
2023-03-02T19:08:08.666Z,39.20
2023-03-02T19:10:37.005Z,68.00
2023-03-02T19:13:03.576Z,73.28
2023-03-02T19:15:32.926Z,91.07
2023-03-02T19:17:59.404Z,87.18
2023-03-02T19:20:27.164Z,94.85
2023-03-02T19:22:55.036Z,94.93
2023-03-02T19:25:21.513Z,83.32
2023-03-02T19:27:48.273Z,84.00
2023-03-02T19:30:20.062Z,98.80
2023-03-02T19:32:46.861Z,85.38
2023-03-02T19:35:17.847Z,83.13
2023-03-02T19:37:44.916Z,107.63
2023-03-02T19:40:13.679Z,102.50
2023-03-02T19:42:40.719Z,97.75
2023-03-02T19:45:08.728Z,93.35
2023-03-02T19:47:35.233Z,89.68
2023-03-02T19:50:01.686Z,80.70
2023-03-02T19:52:28.128Z,73.90
2023-03-02T19:54:54.558Z,71.93
2023-03-02T19:57:21.118Z,87.90
2023-03-02T19:59:47.569Z,72.10
2023-03-02T20:02:15.024Z,80.68
2023-03-02T20:04:41.638Z,73.07
2023-03-02T20:07:08.086Z,69.15
2023-03-02T20:09:34.734Z,68.03
2023-03-02T20:12:02.580Z,67.82
2023-03-02T20:14:34.210Z,74.55
2023-03-02T20:17:02.334Z,68.63
2023-03-02T20:19:29.105Z,57.08
2023-03-02T20:21:55.633Z,54.22
2023-03-02T20:24:22.425Z,60.60
2023-03-02T20:26:49.294Z,58.50
2023-03-02T20:29:16.758Z,50.95
2023-03-02T20:31:43.745Z,49.15
2023-03-02T20:34:12.449Z,47.10
2023-03-02T20:36:39.032Z,40.67
2023-03-02T20:39:10.902Z,42.83
2023-03-02T20:41:38.267Z,47.50
2023-03-02T20:44:05.498Z,37.25
2023-03-02T20:46:37.515Z,35.05
2023-03-02T20:49:06.038Z,35.15
2023-03-02T20:51:32.591Z,34.63
2023-03-02T20:53:59.438Z,41.75
2023-03-02T20:56:25.971Z,43.33
2023-03-02T20:58:52.594Z,37.58
2023-03-02T21:01:20.753Z,38.33
2023-03-02T21:03:47.574Z,37.08
2023-03-02T21:06:15.309Z,38.22
2023-03-02T21:08:43.410Z,40.80
2023-03-02T21:11:15.661Z,46.22
2023-03-02T21:13:45.850Z,40.38
2023-03-02T21:16:18.553Z,31.13
2023-03-02T21:18:45.110Z,31.55
2023-03-02T21:21:11.680Z,34.17
2023-03-02T21:23:38.286Z,32.28
2023-03-02T21:26:04.972Z,35.33
2023-03-02T21:28:31.516Z,39.33
2023-03-02T21:30:58.024Z,43.75
2023-03-02T21:33:24.584Z,43.45
2023-03-02T21:35:51.121Z,42.83
2023-03-02T21:38:17.627Z,40.90
2023-03-02T21:40:46.012Z,48.38
2023-03-02T21:43:15.272Z,39.63
2023-03-02T21:45:42.086Z,38.42
2023-03-02T21:48:08.838Z,37.53
2023-03-02T21:50:37.909Z,43.72
2023-03-02T21:53:05.240Z,37.35
2023-03-02T21:55:32.364Z,35.92
2023-03-02T21:57:59.502Z,39.20
2023-03-02T22:00:32.690Z,36.83
2023-03-02T22:02:59.813Z,38.30
2023-03-02T22:05:27.092Z,39.47
2023-03-02T22:07:53.905Z,36.10
2023-03-02T22:10:29.599Z,40.03
2023-03-02T22:13:10.252Z,33.58
2023-03-02T22:15:36.677Z,38.85
2023-03-02T22:18:12.789Z,42.08
2023-03-02T22:20:42.681Z,33.90
2023-03-02T22:23:18.166Z,38.05
2023-03-02T22:25:44.884Z,32.83
2023-03-02T22:28:23.920Z,33.13
2023-03-02T22:30:51.614Z,31.23
2023-03-02T22:33:21.062Z,35.15
2023-03-02T22:35:49.037Z,33.88
2023-03-02T22:38:23.904Z,29.23
2023-03-02T22:40:50.938Z,35.53
2023-03-02T22:43:25.562Z,31.65
2023-03-02T22:45:54.365Z,35.95
2023-03-02T22:48:22.797Z,28.20
2023-03-02T22:50:50.311Z,26.58
2023-03-02T22:53:30.359Z,26.65
2023-03-02T22:56:02.214Z,27.83
2023-03-02T22:58:48.413Z,31.40
2023-03-02T23:01:22.522Z,29.23
2023-03-02T23:03:51.780Z,30.90
2023-03-02T23:06:30.960Z,25.88
2023-03-02T23:09:01.026Z,26.23
2023-03-02T23:11:28.859Z,28.98
2023-03-02T23:13:55.796Z,26.92
2023-03-02T23:16:24.016Z,30.90
2023-03-02T23:18:54.857Z,33.65
2023-03-02T23:21:38.604Z,31.13
2023-03-02T23:24:07.441Z,29.55
2023-03-02T23:26:34.629Z,31.40
2023-03-02T23:29:01.206Z,30.63
2023-03-02T23:31:27.800Z,42.97
2023-03-02T23:33:54.439Z,40.03
2023-03-02T23:36:21.028Z,32.25
2023-03-02T23:38:50.930Z,28.38
2023-03-02T23:41:18.224Z,33.30
2023-03-02T23:43:44.888Z,32.45
2023-03-02T23:46:14.027Z,29.67
2023-03-02T23:48:41.751Z,35.70
2023-03-02T23:51:11.530Z,41.60
2023-03-02T23:53:38.022Z,38.60
2023-03-02T23:56:04.709Z,35.03
2023-03-02T23:58:31.191Z,37.20
